Time;durP1;ratioP1;P1;durP2;ratioP2;P2;SDS_P1;SDS_P2;PMS_P1;PMS_P2;Temp;Humidity;BMP_temperature;BMP_pressure;BME280_temperature;BME280_humidity;BME280_pressure;Samples;Min_cycle;Max_cycle;Signal;HPM_P1;HPM_P2
2022/08/10 00:00:19;;;;;;;4.37;3.40;;;;;;;20.53;50.18;102017.75;847300;23;1282;-88
2022/08/10 00:00:20;;;;;;;4.95;3.15;;;;;;;20.52;50.30;102019.50;847108;23;1185;-88
2022/08/10 00:00:41;;;;;;;3.50;3.10;;;;;;;20.48;50.11;102019.50;851649;23;1173;-88
2022/08/10 00:01:03;;;;;;;3.53;3.03;;;;;;;20.48;50.17;102008.88;851071;23;1331;-88
2022/08/10 00:01:24;;;;;;;5.20;3.50;;;;;;;20.47;50.32;102017.72;843082;23;1216;-88
2022/08/10 00:01:45;;;;;;;4.90;3.53;;;;;;;20.48;50.16;102019.50;843781;23;1258;-88
2022/08/10 00:02:06;;;;;;;5.15;3.45;;;;;;;20.47;50.50;102013.28;846654;23;1163;-88
2022/08/10 00:02:27;;;;;;;3.83;3.25;;;;;;;20.46;50.14;102016.81;843204;23;1065;-89
2022/08/10 00:02:50;;;;;;;4.43;3.27;;;;;;;20.42;50.30;102012.38;847884;23;1901;-88
2022/08/10 00:03:11;;;;;;;3.80;3.08;;;;;;;20.45;50.58;102015.03;855168;23;1229;-88
2022/08/10 00:03:32;;;;;;;3.97;3.08;;;;;;;20.41;50.33;102024.75;839363;23;1209;-88
2022/08/10 00:03:52;;;;;;;3.70;3.15;;;;;;;20.37;50.65;102011.47;851029;23;1117;-88
2022/08/10 00:04:13;;;;;;;4.65;3.20;;;;;;;20.32;50.46;102005.22;847027;23;1286;-89
2022/08/10 00:04:35;;;;;;;10.10;3.25;;;;;;;20.34;50.60;102012.31;847247;23;1185;-88
2022/08/10 00:04:56;;;;;;;12.52;3.30;;;;;;;20.31;50.81;102011.41;851203;23;1235;-88
2022/08/10 00:05:18;;;;;;;12.13;3.53;;;;;;;20.33;50.52;102015.84;855505;23;1328;-88
2022/08/10 00:05:38;;;;;;;4.80;3.40;;;;;;;20.32;50.69;102018.47;855571;23;1212;-88
2022/08/10 00:05:59;;;;;;;4.78;3.30;;;;;;;20.26;50.74;102006.97;843577;23;1105;-88
2022/08/10 00:06:20;;;;;;;5.03;3.50;;;;;;;20.31;50.73;102012.31;847259;23;1149;-88
2022/08/10 00:06:41;;;;;;;4.50;3.60;;;;;;;20.29;50.90;102022.03;855511;23;1198;-88
2022/08/10 00:07:02;;;;;;;3.92;3.53;;;;;;;20.25;50.54;102012.25;847262;23;1217;-88
2022/08/10 00:07:23;;;;;;;3.63;3.33;;;;;;;20.25;51.07;102015.81;847893;23;1248;-88
2022/08/10 00:07:44;;;;;;;3.55;3.25;;;;;;;20.25;50.76;102010.50;851553;23;1127;-88
2022/08/10 00:08:05;;;;;;;3.78;3.22;;;;;;;20.27;50.89;102014.03;852207;23;980;-88
2022/08/10 00:08:26;;;;;;;4.20;3.40;;;;;;;20.25;51.06;102007.84;838672;23;1268;-88
2022/08/10 00:08:47;;;;;;;4.40;3.40;;;;;;;20.27;51.07;102016.69;850643;23;1216;-88
2022/08/10 00:09:08;;;;;;;5.10;3.50;;;;;;;20.27;50.86;102022.00;852380;23;1214;-88
2022/08/10 00:09:29;;;;;;;4.80;3.40;;;;;;;20.20;50.83;102009.56;840292;23;1242;-88
2022/08/10 00:09:50;;;;;;;4.35;3.30;;;;;;;20.19;50.97;102001.59;844028;23;1428;-88
2022/08/10 00:10:13;;;;;;;3.70;3.10;;;;;;;20.18;51.16;102000.75;852068;23;1126;-88
2022/08/10 00:10:34;;;;;;;4.32;3.20;;;;;;;20.21;51.15;102013.09;848295;23;1273;-88
2022/08/10 00:10:56;;;;;;;4.30;3.20;;;;;;;20.24;50.98;102019.31;844401;23;1302;-88
2022/08/10 00:11:17;;;;;;;4.60;3.25;;;;;;;20.20;51.17;102013.97;844381;23;1153;-88
2022/08/10 00:11:38;;;;;;;4.20;3.30;;;;;;;20.14;51.11;102005.13;856702;23;1184;-88
2022/08/10 00:11:59;;;;;;;4.30;3.40;;;;;;;20.14;51.12;102005.13;848277;23;1145;-88
2022/08/10 00:12:20;;;;;;;8.57;3.80;;;;;;;20.16;51.26;102010.41;844607;23;1254;-88
2022/08/10 00:12:41;;;;;;;8.68;3.80;;;;;;;20.15;51.15;102008.63;844253;23;1370;-88
2022/08/10 00:13:02;;;;;;;8.65;3.72;;;;;;;20.12;51.20;102011.28;859501;23;1239;-87
2022/08/10 00:13:25;;;;;;;4.38;3.40;;;;;;;20.17;51.27;102014.88;848391;23;1190;-88
2022/08/10 00:13:46;;;;;;;3.72;3.25;;;;;;;20.09;51.29;102012.13;840170;23;1253;-88
2022/08/10 00:14:07;;;;;;;4.05;3.50;;;;;;;20.08;51.32;102002.41;847926;23;1276;-88
2022/08/10 00:14:27;;;;;;;4.22;3.30;;;;;;;20.06;51.25;102005.94;843856;23;1208;-88
2022/08/10 00:14:48;;;;;;;4.53;3.07;;;;;;;20.06;51.35;102005.94;843764;23;1211;-88
2022/08/10 00:15:12;;;;;;;8.75;3.00;;;;;;;20.04;51.47;102008.56;843736;23;1228;-88
2022/08/10 00:15:33;;;;;;;8.95;3.33;;;;;;;20.05;51.56;102009.47;846903;23;1207;-88
2022/08/10 00:15:54;;;;;;;8.80;3.60;;;;;;;20.07;51.34;102013.00;847596;23;1099;-88
2022/08/10 00:16:15;;;;;;;4.70;3.58;;;;;;;20.06;51.60;102016.53;843908;23;1205;-87
2022/08/10 00:16:36;;;;;;;7.47;3.53;;;;;;;20.00;51.63;102005.00;847849;23;1074;-88
2022/08/10 00:16:57;;;;;;;6.90;3.70;;;;;;;20.04;51.82;102013.84;851749;23;1279;-87
2022/08/10 00:17:18;;;;;;;6.22;3.70;;;;;;;19.97;51.80;102010.28;839950;23;1270;-88
2022/08/10 00:17:39;;;;;;;4.85;3.60;;;;;;;19.95;51.62;102001.44;841107;23;889;-88
2022/08/10 00:18:00;;;;;;;4.45;3.20;;;;;;;20.02;51.68;102012.09;849058;23;904;-88
2022/08/10 00:18:25;;;;;;;3.35;3.00;;;;;;;20.00;51.63;102007.63;838504;23;1330;-88
2022/08/10 00:18:45;;;;;;;3.50;3.20;;;;;;;19.92;51.59;102003.16;851782;23;1259;-88
2022/08/10 00:19:06;;;;;;;3.60;3.30;;;;;;;20.01;51.84;102008.53;847023;23;1175;-88
2022/08/10 00:19:28;;;;;;;3.88;3.47;;;;;;;19.95;51.83;102003.19;835530;23;1225;-88
2022/08/10 00:19:49;;;;;;;3.80;3.40;;;;;;;19.98;51.78;102012.03;847056;23;1326;-88
2022/08/10 00:20:11;;;;;;;3.80;3.40;;;;;;;19.93;51.83;102008.50;839176;23;1291;-88
2022/08/10 00:20:32;;;;;;;3.83;3.42;;;;;;;19.97;51.81;102017.31;843393;23;1305;-88
2022/08/10 00:20:53;;;;;;;3.58;3.28;;;;;;;19.96;51.89;102008.50;856149;23;1161;-88
2022/08/10 00:21:15;;;;;;;3.67;3.38;;;;;;;19.93;51.83;102011.13;843479;23;1224;-88
2022/08/10 00:21:36;;;;;;;4.00;3.60;;;;;;;19.93;51.97;102016.44;843546;23;1242;-88
2022/08/10 00:21:56;;;;;;;4.15;3.75;;;;;;;19.87;51.93;102011.06;851567;23;1355;-88
2022/08/10 00:22:17;;;;;;;5.10;3.80;;;;;;;19.85;51.90;102002.19;851472;23;1284;-88
2022/08/10 00:22:39;;;;;;;4.18;3.45;;;;;;;19.85;52.03;102007.47;839427;23;1897;-88
2022/08/10 00:23:00;;;;;;;4.90;3.50;;;;;;;19.85;52.10;102003.06;843143;23;1204;-88
2022/08/10 00:23:22;;;;;;;4.10;3.40;;;;;;;19.86;52.17;102012.78;847620;23;1379;-88
2022/08/10 00:23:42;;;;;;;4.38;3.30;;;;;;;19.84;52.40;102005.69;839447;23;1310;-88
2022/08/10 00:24:03;;;;;;;3.50;3.20;;;;;;;19.84;52.43;102000.41;846663;23;1224;-88
2022/08/10 00:24:24;;;;;;;3.40;3.10;;;;;;;19.80;52.44;102004.78;843429;23;1325;-88
2022/08/10 00:24:45;;;;;;;3.53;3.22;;;;;;;19.84;52.40;102006.59;847705;23;1157;-88
2022/08/10 00:25:07;;;;;;;3.83;3.40;;;;;;;19.81;52.41;101997.75;851111;23;1434;-88
2022/08/10 00:25:28;;;;;;;4.80;3.58;;;;;;;19.79;52.60;102003.00;839060;23;1350;-87
2022/08/10 00:25:49;;;;;;;4.57;3.50;;;;;;;19.78;52.23;101997.72;842380;23;1220;-88
2022/08/10 00:26:11;;;;;;;4.10;3.40;;;;;;;19.83;52.54;102011.88;843011;23;1188;-88
2022/08/10 00:26:32;;;;;;;3.83;3.53;;;;;;;19.77;52.50;102004.78;843650;23;1282;-88
2022/08/10 00:26:53;;;;;;;4.30;3.90;;;;;;;19.77;52.48;102002.13;851559;23;1245;-88
2022/08/10 00:27:14;;;;;;;4.22;3.80;;;;;;;19.76;52.48;101997.69;847432;23;1309;-88
2022/08/10 00:27:35;;;;;;;3.95;3.55;;;;;;;19.74;52.62;102004.75;851910;23;1143;-88
2022/08/10 00:27:56;;;;;;;3.70;3.40;;;;;;;19.72;52.45;102004.72;839983;23;1243;-89
2022/08/10 00:28:17;;;;;;;3.90;3.60;;;;;;;19.75;52.42;102011.81;843373;23;1204;-88
2022/08/10 00:28:38;;;;;;;4.10;3.67;;;;;;;19.69;52.50;101996.78;834994;23;1300;-88
2022/08/10 00:28:59;;;;;;;4.22;3.70;;;;;;;19.71;52.82;102002.97;847240;23;1160;-88
2022/08/10 00:29:20;;;;;;;4.05;3.50;;;;;;;19.67;52.52;102003.78;851813;23;1325;-88
2022/08/10 00:29:41;;;;;;;3.90;3.50;;;;;;;19.67;52.55;102003.78;847301;23;1294;-88
2022/08/10 00:30:04;;;;;;;4.03;3.63;;;;;;;19.66;52.79;102002.03;851235;23;1238;-89
2022/08/10 00:30:25;;;;;;;4.63;3.70;;;;;;;19.70;52.77;102009.13;851530;23;1212;-88
2022/08/10 00:30:46;;;;;;;4.75;3.83;;;;;;;19.66;52.96;102002.03;847635;23;1458;-88
2022/08/10 00:31:07;;;;;;;5.47;3.80;;;;;;;19.61;52.66;101992.25;842658;23;1187;-88
2022/08/10 00:31:28;;;;;;;4.72;3.80;;;;;;;19.67;52.96;102009.09;839466;23;1279;-88
2022/08/10 00:31:49;;;;;;;4.90;3.80;;;;;;;19.65;52.87;101997.59;847855;23;1220;-88
2022/08/10 00:32:09;;;;;;;4.60;3.80;;;;;;;19.67;52.87;102003.78;850973;23;1217;-87
2022/08/10 00:32:31;;;;;;;4.57;3.63;;;;;;;19.62;52.89;102005.53;853150;23;751;-88
2022/08/10 00:32:52;;;;;;;5.00;3.80;;;;;;;19.57;53.10;101997.53;846724;23;1311;-89
2022/08/10 00:33:13;;;;;;;6.10;3.87;;;;;;;19.63;52.95;102002.00;838946;23;1258;-88
2022/08/10 00:33:34;;;;;;;5.85;3.78;;;;;;;19.63;52.97;102006.41;847575;23;1298;-89
2022/08/10 00:33:54;;;;;;;4.85;3.20;;;;;;;19.61;53.05;101998.44;842535;23;1097;-88
2022/08/10 00:34:16;;;;;;;3.70;3.40;;;;;;;19.61;52.88;102001.06;843098;23;1264;-88
2022/08/10 00:34:37;;;;;;;4.10;3.70;;;;;;;19.53;52.86;101986.88;851519;23;1187;-88
2022/08/10 00:34:58;;;;;;;4.50;3.97;;;;;;;19.65;53.04;102016.13;846705;23;1074;-88
2022/08/10 00:35:19;;;;;;;5.22;3.90;;;;;;;19.59;52.92;102005.47;851671;23;1276;-88
2022/08/10 00:35:40;;;;;;;6.30;3.70;;;;;;;19.56;53.06;102003.69;843608;23;1180;-88
2022/08/10 00:36:01;;;;;;;5.90;3.60;;;;;;;19.58;53.19;101998.41;838675;23;1290;-89
2022/08/10 00:36:22;;;;;;;4.10;3.60;;;;;;;19.59;53.05;102008.13;831418;23;1227;-88
2022/08/10 00:36:42;;;;;;;4.85;3.75;;;;;;;19.50;53.21;101993.06;839287;23;1352;-88
2022/08/10 00:37:03;;;;;;;4.80;3.80;;;;;;;19.59;53.28;102010.78;834456;23;1197;-88
2022/08/10 00:37:25;;;;;;;5.40;3.90;;;;;;;19.55;53.16;102004.56;839152;23;1185;-88
2022/08/10 00:37:45;;;;;;;5.60;3.80;;;;;;;19.47;53.41;101993.00;846444;23;1165;-87
2022/08/10 00:38:06;;;;;;;5.43;3.60;;;;;;;19.53;53.41;102005.41;839010;23;1261;-88
2022/08/10 00:38:27;;;;;;;5.03;3.38;;;;;;;19.48;53.20;101993.91;839663;23;1241;-88
2022/08/10 00:38:48;;;;;;;4.10;3.55;;;;;;;19.48;53.10;101996.53;852389;23;1266;-88
2022/08/10 00:39:09;;;;;;;4.82;3.90;;;;;;;19.54;53.31;102009.84;847374;23;1148;-88
2022/08/10 00:39:30;;;;;;;5.25;4.30;;;;;;;19.49;53.39;101998.31;843763;23;1211;-88
2022/08/10 00:39:51;;;;;;;6.28;4.50;;;;;;;19.50;53.40;102000.09;843920;23;1360;-88
2022/08/10 00:40:12;;;;;;;6.20;4.47;;;;;;;19.50;53.54;102001.00;851795;23;1337;-88
2022/08/10 00:40:33;;;;;;;6.10;4.40;;;;;;;19.45;53.52;101995.66;852016;23;1184;-88
2022/08/10 00:40:54;;;;;;;4.93;3.90;;;;;;;19.43;53.44;102002.66;851699;23;1148;-87
2022/08/10 00:41:15;;;;;;;5.70;3.92;;;;;;;19.44;53.59;102001.78;847623;23;1152;-88
2022/08/10 00:41:36;;;;;;;5.63;3.80;;;;;;;19.43;53.57;102005.31;847548;23;1215;-88
2022/08/10 00:41:57;;;;;;;5.40;3.80;;;;;;;19.45;53.57;102008.88;847598;23;1338;-88
2022/08/10 00:42:18;;;;;;;4.80;3.60;;;;;;;19.35;53.36;101983.16;839371;23;1276;-88
2022/08/10 00:42:39;;;;;;;4.68;3.60;;;;;;;19.40;53.52;102000.00;843553;23;1896;-88
2022/08/10 00:43:00;;;;;;;4.25;3.33;;;;;;;19.43;53.59;102004.44;839325;23;1192;-88
2022/08/10 00:43:21;;;;;;;4.40;3.30;;;;;;;19.41;53.59;102000.88;843604;23;1199;-88
2022/08/10 00:43:42;;;;;;;5.10;3.40;;;;;;;19.42;53.60;102006.19;843265;23;1224;-88
2022/08/10 00:44:03;;;;;;;4.75;3.58;;;;;;;19.39;53.85;102005.28;842039;23;1177;-88
2022/08/10 00:44:24;;;;;;;5.80;3.88;;;;;;;19.40;54.08;102005.28;847968;23;1244;-88
2022/08/10 00:44:48;;;;;;;5.22;3.83;;;;;;;19.36;54.03;102003.47;846903;23;1219;-88
2022/08/10 00:45:10;;;;;;;7.85;3.90;;;;;;;19.41;53.97;102008.81;847239;23;1322;-88
2022/08/10 00:45:32;;;;;;;6.75;3.80;;;;;;;19.39;53.94;102007.91;850892;23;1259;-88
2022/08/10 00:45:53;;;;;;;7.07;3.90;;;;;;;19.34;53.90;101994.63;839526;23;1248;-88
2022/08/10 00:46:14;;;;;;;4.10;3.70;;;;;;;19.33;54.05;101995.50;839268;23;1293;-88
2022/08/10 00:46:36;;;;;;;3.85;3.55;;;;;;;19.37;54.12;102013.19;843683;23;1177;-88
2022/08/10 00:46:59;;;;;;;3.78;3.47;;;;;;;19.34;54.08;102005.22;843654;23;1192;-88
2022/08/10 00:47:22;;;;;;;3.90;3.50;;;;;;;19.30;54.15;101992.84;846725;23;1216;-87
2022/08/10 00:47:42;;;;;;;3.90;3.50;;;;;;;19.28;53.76;101995.47;856012;23;1305;-88
2022/08/10 00:48:04;;;;;;;4.63;3.70;;;;;;;19.36;54.02;102007.91;851296;23;1212;-88
2022/08/10 00:48:25;;;;;;;5.07;4.00;;;;;;;19.34;54.17;102009.63;855551;23;1436;-88
2022/08/10 00:48:45;;;;;;;5.30;4.28;;;;;;;19.29;54.23;101999.88;856022;23;1198;-88
2022/08/10 00:49:07;;;;;;;5.53;4.25;;;;;;;19.26;54.09;101997.22;847150;23;1238;-87
2022/08/10 00:49:28;;;;;;;4.90;4.05;;;;;;;19.32;54.33;102006.97;847378;23;1261;-88
2022/08/10 00:49:49;;;;;;;5.47;4.07;;;;;;;19.29;54.01;102002.53;847549;23;1221;-88
2022/08/10 00:50:10;;;;;;;4.63;3.90;;;;;;;19.24;54.24;101998.94;855669;23;1462;-88
2022/08/10 00:50:31;;;;;;;4.35;3.78;;;;;;;19.26;54.21;101998.94;847822;23;1230;-88
2022/08/10 00:50:52;;;;;;;4.40;4.00;;;;;;;19.26;54.20;102004.25;843844;23;1299;-88
2022/08/10 00:51:13;;;;;;;4.40;4.00;;;;;;;19.28;54.14;102008.69;847574;23;1297;-88
2022/08/10 00:51:34;;;;;;;4.63;4.20;;;;;;;19.24;54.24;102001.56;843713;23;1358;-88
2022/08/10 00:51:55;;;;;;;4.90;4.03;;;;;;;19.28;54.08;102010.44;839618;23;1421;-88
2022/08/10 00:52:18;;;;;;;5.28;4.10;;;;;;;19.28;54.26;102010.44;842340;23;1410;-88
2022/08/10 00:52:39;;;;;;;5.53;4.07;;;;;;;19.23;54.31;102012.16;851976;23;1176;-88
2022/08/10 00:53:01;;;;;;;5.60;4.00;;;;;;;19.28;54.40;102013.09;843120;23;1320;-88
2022/08/10 00:53:22;;;;;;;6.15;4.00;;;;;;;19.24;54.26;102003.34;847589;23;1287;-88
2022/08/10 00:53:43;;;;;;;5.60;4.00;;;;;;;19.21;54.37;102001.56;843787;23;1203;-88
2022/08/10 00:54:05;;;;;;;5.28;4.38;;;;;;;19.20;54.39;102007.72;842499;23;1180;-88
2022/08/10 00:54:26;;;;;;;4.80;4.40;;;;;;;19.22;54.27;102002.41;851061;23;1192;-88
2022/08/10 00:54:47;;;;;;;4.57;4.18;;;;;;;19.22;54.57;102010.34;856245;23;1233;-88
2022/08/10 00:55:09;;;;;;;4.50;4.10;;;;;;;19.23;54.48;102006.88;839189;23;1154;-88
2022/08/10 00:55:30;;;;;;;4.40;4.00;;;;;;;19.22;54.51;102010.34;843978;23;1437;-88
2022/08/10 00:55:51;;;;;;;4.30;3.90;;;;;;;19.18;54.52;102005.03;843744;23;1254;-88
2022/08/10 00:56:12;;;;;;;5.57;4.00;;;;;;;19.18;54.48;102007.69;846653;23;1131;-87
2022/08/10 00:56:34;;;;;;;6.72;4.10;;;;;;;19.17;54.31;102005.91;839775;23;1196;-88
2022/08/10 00:56:55;;;;;;;6.60;4.20;;;;;;;19.14;54.70;101992.66;841351;23;1001;-88
2022/08/10 00:57:16;;;;;;;6.63;4.05;;;;;;;19.16;54.50;102001.50;851755;23;1312;-88
2022/08/10 00:58:01;;;;;;;6.75;3.90;;;;;;;19.21;54.74;102013.88;843568;23;1286;-88
2022/08/10 00:58:23;;;;;;;5.70;4.10;;;;;;;19.17;54.72;102013.84;839288;23;1319;-88
2022/08/10 00:58:45;;;;;;;4.60;4.10;;;;;;;19.10;54.49;102001.41;856180;23;1321;-88
2022/08/10 00:59:06;;;;;;;4.22;3.83;;;;;;;19.18;54.77;102010.34;843117;23;1483;-88
2022/08/10 00:59:29;;;;;;;5.18;4.10;;;;;;;19.11;54.91;101997.03;839727;23;1112;-88
2022/08/10 00:59:52;;;;;;;5.47;4.10;;;;;;;19.16;54.71;102014.72;847385;23;1212;-88
2022/08/10 01:00:13;;;;;;;5.90;4.00;;;;;;;19.11;54.64;102008.47;847267;23;1192;-88
2022/08/10 01:00:34;;;;;;;4.60;3.72;;;;;;;19.14;54.71;102018.22;839061;23;1326;-88
2022/08/10 01:00:55;;;;;;;4.30;3.90;;;;;;;19.14;54.80;102012.94;856043;23;1348;-88
2022/08/10 01:01:16;;;;;;;4.40;4.00;;;;;;;19.12;55.07;102010.25;847176;23;1190;-88
2022/08/10 01:01:38;;;;;;;4.30;3.90;;;;;;;19.16;54.76;102017.38;839155;23;1251;-88
2022/08/10 01:01:59;;;;;;;4.40;4.00;;;;;;;19.09;55.09;102010.22;847524;23;1266;-88
2022/08/10 01:02:20;;;;;;;4.20;3.80;;;;;;;19.09;55.03;102009.34;847690;23;1240;-88
2022/08/10 01:02:41;;;;;;;4.60;4.00;;;;;;;19.14;54.88;102019.13;851352;23;1976;-88
2022/08/10 01:03:02;;;;;;;4.70;4.13;;;;;;;19.04;54.84;102006.63;843234;23;1235;-88
2022/08/10 01:03:23;;;;;;;5.45;4.30;;;;;;;19.11;54.96;102015.56;843586;23;1392;-88
2022/08/10 01:03:44;;;;;;;4.75;4.10;;;;;;;19.08;54.83;102007.56;852040;23;1303;-88
2022/08/10 01:04:06;;;;;;;4.53;3.92;;;;;;;19.05;55.09;102008.41;850116;23;1325;-88
2022/08/10 01:04:27;;;;;;;4.30;3.90;;;;;;;19.04;54.95;101999.59;851695;23;1208;-88
2022/08/10 01:04:48;;;;;;;4.93;3.85;;;;;;;19.08;55.07;102008.47;846958;23;1153;-88
2022/08/10 01:05:13;;;;;;;5.07;3.85;;;;;;;19.02;55.00;102005.69;843108;23;1193;-88
2022/08/10 01:05:48;;;;;;;6.40;4.45;;;;;;;19.04;55.08;102011.91;855872;23;1363;-88
2022/08/10 01:06:21;;;;;;;7.35;4.60;;;;;;;19.06;55.22;102018.16;851194;23;1250;-88
2022/08/10 01:07:04;;;;;;;5.50;4.30;;;;;;;19.09;55.16;102020.81;839535;23;1378;-88
2022/08/10 01:07:48;;;;;;;5.57;4.10;;;;;;;19.03;55.11;102010.16;839330;23;1286;-88
2022/08/10 01:08:35;;;;;;;5.95;4.15;;;;;;;19.04;55.17;102017.22;844420;23;1041;-88
2022/08/10 01:09:10;;;;;;;6.00;4.15;;;;;;;18.95;55.13;102007.38;843442;23;1270;-88
2022/08/10 01:09:44;;;;;;;4.40;4.00;;;;;;;18.95;55.18;102001.19;844554;23;1449;-88
2022/08/10 01:10:05;;;;;;;5.18;4.20;;;;;;;19.01;55.27;102011.88;846770;23;1266;-88
2022/08/10 01:10:43;;;;;;;6.40;4.10;;;;;;;18.97;55.25;102010.03;855991;23;1518;-88
2022/08/10 01:11:37;;;;;;;6.28;4.00;;;;;;;18.92;55.33;101999.41;849983;23;1242;-88
2022/08/10 01:12:11;;;;;;;5.53;4.50;;;;;;;18.94;55.31;102004.72;827989;23;1311;-88
2022/08/10 01:12:50;;;;;;;5.22;4.60;;;;;;;18.98;55.48;102011.81;847513;23;1214;-88
2022/08/10 01:14:01;;;;;;;6.18;4.10;;;;;;;18.97;55.46;102012.69;843104;23;1297;-88
2022/08/10 01:14:50;;;;;;;5.45;4.28;;;;;;;18.88;55.52;101993.19;836640;23;1562;-88
2022/08/10 01:15:17;;;;;;;6.80;4.60;;;;;;;18.93;55.39;102008.22;850952;23;1260;-88
2022/08/10 01:15:46;;;;;;;4.80;4.35;;;;;;;18.93;55.75;102011.75;855668;23;1372;-88
2022/08/10 01:16:22;;;;;;;4.68;4.18;;;;;;;18.87;55.65;102002.00;847117;23;1173;-88
2022/08/10 01:16:52;;;;;;;5.10;4.15;;;;;;;18.87;55.79;101999.34;847842;23;1121;-88
2022/08/10 01:17:50;;;;;;;4.78;4.00;;;;;;;18.79;55.71;101984.25;851482;23;1301;-88
2022/08/10 01:18:22;;;;;;;4.60;4.10;;;;;;;18.90;55.70;102009.97;843056;23;1295;-88
2022/08/10 01:18:50;;;;;;;4.97;4.13;;;;;;;18.90;55.88;102012.63;847718;23;1194;-88
2022/08/10 01:19:37;;;;;;;5.95;4.25;;;;;;;18.77;55.81;101985.09;843225;23;1169;-88
2022/08/10 01:20:23;;;;;;;6.93;4.10;;;;;;;18.87;55.73;102009.91;832197;23;1341;-88
2022/08/10 01:21:29;;;;;;;4.55;4.00;;;;;;;18.87;55.78;102006.41;831897;23;1267;-88
2022/08/10 01:22:19;;;;;;;5.50;4.30;;;;;;;18.85;55.90;101998.44;842627;23;1342;-88
2022/08/10 01:23:20;;;;;;;5.20;4.20;;;;;;;18.78;55.93;101993.94;834153;23;1893;-88
2022/08/10 01:24:09;;;;;;;7.28;4.32;;;;;;;18.82;55.79;101994.88;842854;23;1184;-88
2022/08/10 01:25:12;;;;;;;6.53;4.10;;;;;;;18.79;56.07;102006.28;842683;23;1274;-88
2022/08/10 01:26:07;;;;;;;5.85;4.88;;;;;;;18.76;56.32;101999.19;836829;23;1189;-88
2022/08/10 01:26:41;;;;;;;4.90;4.22;;;;;;;18.75;56.00;101997.41;842964;23;1303;-88
2022/08/10 01:27:31;;;;;;;4.68;4.18;;;;;;;18.71;56.20;102002.66;847038;23;1314;-88
2022/08/10 01:28:04;;;;;;;4.60;4.20;;;;;;;18.69;56.15;101999.09;847864;23;972;-88
2022/08/10 01:28:51;;;;;;;4.53;4.13;;;;;;;18.68;56.12;101992.03;843738;23;1270;-88
2022/08/10 01:29:22;;;;;;;5.50;4.10;;;;;;;18.66;56.17;101988.47;851232;23;1307;-88
2022/08/10 01:29:54;;;;;;;4.97;4.00;;;;;;;18.73;56.21;102000.91;855149;23;1266;-88
2022/08/10 01:30:17;;;;;;;4.90;4.15;;;;;;;18.67;56.39;101990.28;847195;23;1219;-88
2022/08/10 01:30:41;;;;;;;4.50;4.10;;;;;;;18.69;56.38;101993.81;843379;23;1168;-88
2022/08/10 01:31:04;;;;;;;5.20;4.05;;;;;;;18.66;56.40;101994.66;851501;23;1313;-88
2022/08/10 01:31:32;;;;;;;4.90;4.00;;;;;;;18.69;56.46;101996.47;839399;23;1282;-88
2022/08/10 01:31:59;;;;;;;4.80;4.00;;;;;;;18.64;56.52;101991.97;838708;23;966;-88
2022/08/10 01:32:31;;;;;;;5.53;4.30;;;;;;;18.67;56.43;101996.44;847684;23;1389;-88
2022/08/10 01:33:01;;;;;;;7.03;4.40;;;;;;;18.68;56.51;102002.63;843757;23;1366;-88
2022/08/10 01:33:28;;;;;;;6.80;4.20;;;;;;;18.62;56.63;101991.09;843612;23;1159;-88
2022/08/10 01:34:01;;;;;;;6.53;4.40;;;;;;;18.58;56.60;101986.63;847033;23;1329;-88
2022/08/10 01:34:38;;;;;;;5.95;4.70;;;;;;;18.63;56.61;101994.63;839235;23;1343;-88
2022/08/10 01:35:09;;;;;;;5.90;4.45;;;;;;;18.54;56.68;101978.63;847290;23;1167;-88
2022/08/10 01:35:35;;;;;;;5.85;4.50;;;;;;;18.65;56.46;101995.53;839480;23;1330;-88
2022/08/10 01:36:03;;;;;;;5.32;4.65;;;;;;;18.61;56.56;101994.59;851486;23;1391;-88
2022/08/10 01:36:29;;;;;;;5.20;4.38;;;;;;;18.58;56.54;101988.38;846491;23;1263;-88
2022/08/10 01:36:55;;;;;;;5.68;4.47;;;;;;;18.61;56.66;101994.59;839695;23;1370;-88
2022/08/10 01:37:23;;;;;;;5.13;4.57;;;;;;;18.54;56.51;101987.44;847583;23;1231;-87
2022/08/10 01:37:58;;;;;;;6.20;4.30;;;;;;;18.61;56.58;101997.25;851744;23;1434;-88
2022/08/10 01:38:25;;;;;;;6.60;4.45;;;;;;;18.53;56.87;101983.03;847409;23;1263;-88
2022/08/10 01:38:49;;;;;;;5.40;4.40;;;;;;;18.49;56.46;101981.19;839805;23;1419;-88
2022/08/10 01:39:14;;;;;;;4.50;4.10;;;;;;;18.53;56.68;101990.06;851064;23;1284;-88
2022/08/10 01:39:42;;;;;;;4.68;4.18;;;;;;;18.53;56.81;101993.59;846981;23;1109;-88
2022/08/10 01:40:06;;;;;;;4.85;4.35;;;;;;;18.52;56.62;101981.25;838993;23;1393;-88
2022/08/10 01:40:31;;;;;;;5.55;4.68;;;;;;;18.51;56.80;101990.06;846477;23;1235;-88
2022/08/10 01:41:05;;;;;;;7.43;4.60;;;;;;;18.57;56.72;102005.09;843584;23;1096;-89
2022/08/10 01:41:44;;;;;;;7.90;4.50;;;;;;;18.55;56.96;101996.28;847752;23;1355;-88
2022/08/10 01:42:10;;;;;;;5.30;4.60;;;;;;;18.46;56.75;101983.81;842682;23;1173;-88
2022/08/10 01:42:35;;;;;;;4.90;4.40;;;;;;;18.54;56.93;101998.03;847128;23;1175;-88
2022/08/10 01:42:58;;;;;;;5.82;4.50;;;;;;;18.51;56.97;101990.06;843115;23;1897;-88
2022/08/10 01:43:20;;;;;;;6.72;4.60;;;;;;;18.51;56.94;101995.34;839196;23;1264;-88
2022/08/10 01:43:53;;;;;;;5.97;4.50;;;;;;;18.46;57.00;101982.06;847589;23;1252;-88
2022/08/10 01:44:22;;;;;;;5.20;4.50;;;;;;;18.48;56.80;101984.72;850316;23;1203;-88
2022/08/10 01:44:51;;;;;;;4.95;4.40;;;;;;;18.47;57.11;101988.22;847820;23;1207;-87
2022/08/10 01:45:13;;;;;;;6.60;4.90;;;;;;;18.50;57.03;101991.81;853654;23;1320;-88
2022/08/10 01:45:38;;;;;;;7.25;4.82;;;;;;;18.47;57.14;101997.06;855496;23;1408;-88
2022/08/10 01:46:01;;;;;;;6.45;4.65;;;;;;;18.43;57.28;101991.69;846375;23;1177;-88
2022/08/10 01:46:24;;;;;;;6.00;4.50;;;;;;;18.43;57.16;101989.06;843701;23;1379;-88
2022/08/10 01:46:49;;;;;;;5.53;4.47;;;;;;;18.48;57.21;101995.28;846889;23;1267;-88
2022/08/10 01:48:41;;;;;;;6.05;4.40;;;;;;;18.42;57.27;101996.09;851706;23;1374;-88
2022/08/10 01:49:07;;;;;;;5.68;4.25;;;;;;;18.41;57.38;101990.75;848806;23;1612;-88
2022/08/10 01:49:30;;;;;;;6.75;4.20;;;;;;;18.39;57.13;101990.75;843384;23;1236;-88
2022/08/10 01:49:58;;;;;;;6.95;4.22;;;;;;;18.39;57.50;101990.75;846979;23;1510;-88
2022/08/10 01:50:32;;;;;;;6.82;4.40;;;;;;;18.40;57.30;101989.00;846534;23;1249;-88
2022/08/10 01:51:00;;;;;;;5.85;4.55;;;;;;;18.36;57.42;101986.31;843617;23;1207;-89
2022/08/10 01:51:29;;;;;;;5.10;4.60;;;;;;;18.40;57.38;101992.53;847387;23;1303;-88
2022/08/10 01:51:54;;;;;;;4.72;4.32;;;;;;;18.35;57.77;101984.53;839830;23;1255;-88
2022/08/10 01:52:17;;;;;;;4.72;4.32;;;;;;;18.41;57.45;101993.41;839364;23;1221;-88
2022/08/10 01:52:41;;;;;;;4.65;4.25;;;;;;;18.34;57.73;101988.03;851748;23;1364;-88
2022/08/10 01:53:11;;;;;;;4.97;4.47;;;;;;;18.35;57.70;101984.53;847291;23;1259;-88
2022/08/10 01:53:40;;;;;;;5.13;4.40;;;;;;;18.35;57.33;101978.34;847617;23;1178;-88
2022/08/10 01:54:04;;;;;;;6.05;4.40;;;;;;;18.39;57.53;101995.16;847133;23;1311;-88
2022/08/10 01:54:27;;;;;;;6.15;4.80;;;;;;;18.36;57.56;101988.97;843361;23;1291;-88
2022/08/10 01:54:52;;;;;;;5.10;4.60;;;;;;;18.37;57.51;101989.84;847250;23;1393;-88
2022/08/10 01:55:15;;;;;;;5.05;4.55;;;;;;;18.33;57.94;101980.97;843353;23;1298;-88
2022/08/10 01:55:39;;;;;;;5.25;4.45;;;;;;;18.33;57.47;101980.97;847761;23;1195;-88
2022/08/10 01:56:01;;;;;;;5.97;4.47;;;;;;;18.29;57.58;101973.88;843500;23;1158;-88
2022/08/10 01:56:25;;;;;;;7.00;4.80;;;;;;;18.27;57.62;101964.16;851876;23;1283;-88
2022/08/10 01:56:51;;;;;;;6.95;4.80;;;;;;;18.36;57.58;101990.69;856335;23;1505;-88
2022/08/10 01:57:14;;;;;;;6.80;4.97;;;;;;;18.38;57.51;101988.09;851602;23;1159;-88
2022/08/10 01:57:38;;;;;;;5.32;4.75;;;;;;;18.32;57.55;101981.84;847457;23;1348;-88
2022/08/10 01:58:03;;;;;;;5.07;4.68;;;;;;;18.31;57.52;101980.06;847836;23;1351;-88
2022/08/10 01:58:26;;;;;;;6.53;4.70;;;;;;;18.29;57.55;101973.88;843573;23;1381;-88
2022/08/10 01:58:55;;;;;;;6.50;4.80;;;;;;;18.30;57.63;101975.66;847552;23;1157;-87
2022/08/10 01:59:36;;;;;;;5.95;4.93;;;;;;;18.31;57.65;101980.06;847148;23;1223;-88
2022/08/10 01:59:59;;;;;;;6.80;4.75;;;;;;;18.33;57.69;101988.91;841700;23;1200;-88
2022/08/10 02:00:20;;;;;;;7.10;4.57;;;;;;;18.31;57.85;101981.84;843218;23;1248;-88
2022/08/10 02:00:44;;;;;;;7.30;4.35;;;;;;;18.27;57.68;101980.91;847510;23;1180;-88
2022/08/10 02:01:08;;;;;;;6.95;4.57;;;;;;;18.30;57.60;101985.31;846680;23;1160;-88